Time;durP1;ratioP1;P1;durP2;ratioP2;P2;SDS_P1;SDS_P2;PMS_P1;PMS_P2;Temp;Humidity;BMP_temperature;BMP_pressure;BME280_temperature;BME280_humidity;BME280_pressure;Samples;Min_cycle;Max_cycle;Signal;HPM_P1;HPM_P2
2022/08/16 04:00:17;;;;;;;59.83;26.48;;;14.80;99.90;;;;;;6077505;23;20879;31
2022/08/16 04:02:43;;;;;;;39.25;19.90;;;14.90;99.90;;;;;;4933524;28;20498;-71
2022/08/16 04:05:15;;;;;;;48.00;21.77;;;14.80;99.90;;;;;;4965683;28;20414;-72
2022/08/16 04:07:41;;;;;;;40.05;18.60;;;14.90;99.90;;;;;;4950403;28;20629;-72
2022/08/16 04:10:09;;;;;;;38.75;20.20;;;14.80;99.90;;;;;;4936719;28;20040;-72
2022/08/16 04:12:37;;;;;;;37.97;19.67;;;14.70;99.90;;;;;;4947916;28;20047;-72
2022/08/16 04:15:04;;;;;;;34.15;19.38;;;14.70;99.90;;;;;;4916963;29;20044;-72
2022/08/16 04:17:30;;;;;;;39.90;21.10;;;14.80;99.90;;;;;;4917357;28;20072;-72
2022/08/16 04:19:56;;;;;;;38.25;20.98;;;14.80;99.90;;;;;;4918000;29;20119;-73
2022/08/16 04:22:22;;;;;;;39.30;20.65;;;14.90;99.90;;;;;;4917530;29;20125;-72
2022/08/16 04:24:48;;;;;;;27.23;16.92;;;14.90;99.90;;;;;;4916675;29;20486;-72
2022/08/16 04:27:14;;;;;;;55.67;23.70;;;14.90;99.90;;;;;;4917137;29;20123;-72
2022/08/16 04:29:39;;;;;;;37.10;20.33;;;15.00;99.90;;;;;;4920103;29;20036;-73
2022/08/16 04:32:05;;;;;;;34.00;19.83;;;15.00;99.90;;;;;;4920382;29;20055;-72
2022/08/16 04:34:33;;;;;;;38.70;20.55;;;15.00;99.90;;;;;;4920340;29;20043;-72
2022/08/16 04:36:59;;;;;;;35.63;18.42;;;15.10;99.90;;;;;;4934739;29;20043;-73
2022/08/16 04:39:25;;;;;;;35.47;19.67;;;15.10;99.90;;;;;;4919392;29;20041;-72
2022/08/16 04:41:51;;;;;;;34.78;21.27;;;15.00;99.90;;;;;;4920058;29;20060;-72
2022/08/16 04:44:17;;;;;;;31.33;18.90;;;15.00;99.90;;;;;;4919986;29;20033;-72
2022/08/16 04:46:43;;;;;;;30.73;18.13;;;15.10;99.90;;;;;;4920263;29;20503;-72
2022/08/16 04:49:10;;;;;;;36.58;19.85;;;15.00;99.90;;;;;;4919786;29;20044;-72
2022/08/16 04:51:36;;;;;;;28.25;16.55;;;15.00;99.90;;;;;;4919761;29;20041;-73
2022/08/16 04:54:03;;;;;;;22.27;13.90;;;15.00;99.90;;;;;;4919714;29;20041;-72
2022/08/16 04:56:28;;;;;;;34.25;18.92;;;14.90;99.90;;;;;;4919991;29;20092;-72
2022/08/16 04:58:54;;;;;;;43.17;21.10;;;14.90;99.90;;;;;;4919800;29;20547;-73
2022/08/16 05:01:19;;;;;;;33.03;17.35;;;15.00;99.90;;;;;;4919376;29;20040;-72
2022/08/16 05:03:46;;;;;;;40.47;21.60;;;15.00;99.90;;;;;;4919963;29;20049;-72
2022/08/16 05:06:12;;;;;;;50.15;22.65;;;14.90;99.90;;;;;;4919297;29;20036;-72
2022/08/16 05:08:38;;;;;;;67.38;27.65;;;15.00;99.90;;;;;;4920091;29;20410;-72
2022/08/16 05:11:06;;;;;;;38.88;21.30;;;15.00;99.90;;;;;;4919000;29;20043;-73
2022/08/16 05:13:34;;;;;;;31.10;18.92;;;15.10;99.90;;;;;;4919639;29;20487;-72
2022/08/16 05:16:00;;;;;;;24.48;16.65;;;15.20;99.90;;;;;;4919037;29;20063;-72
2022/08/16 05:18:26;;;;;;;32.90;19.85;;;15.20;99.90;;;;;;4933978;29;20040;-72
2022/08/16 05:20:52;;;;;;;25.73;17.00;;;15.20;99.90;;;;;;4919430;29;20037;-72
2022/08/16 05:23:18;;;;;;;41.97;21.75;;;15.30;99.90;;;;;;4919256;29;20056;-72
2022/08/16 05:25:43;;;;;;;39.33;21.17;;;15.40;99.90;;;;;;4919301;29;20025;-72
2022/08/16 05:28:10;;;;;;;54.78;24.55;;;15.40;99.90;;;;;;4919058;29;20049;-72
2022/08/16 05:30:36;;;;;;;43.50;23.15;;;15.50;99.90;;;;;;4918761;29;20037;-72
2022/08/16 05:33:02;;;;;;;32.53;19.15;;;15.60;99.90;;;;;;4919918;29;20035;-72
2022/08/16 05:35:27;;;;;;;47.95;22.63;;;15.70;99.90;;;;;;4933964;29;20127;-73
2022/08/16 05:37:53;;;;;;;38.72;21.38;;;15.70;99.90;;;;;;4934072;29;20491;-73
2022/08/16 05:40:18;;;;;;;35.45;20.88;;;15.70;99.90;;;;;;4918101;29;20422;-72
2022/08/16 05:42:44;;;;;;;28.70;17.52;;;15.90;99.90;;;;;;4933295;29;20418;-72
2022/08/16 05:45:10;;;;;;;24.35;14.05;;;15.90;99.90;;;;;;4923169;29;20093;-72
2022/08/16 05:47:35;;;;;;;42.92;21.67;;;15.90;99.90;;;;;;4918722;29;20048;-74
2022/08/16 05:50:01;;;;;;;40.75;21.27;;;16.00;99.90;;;;;;4919377;29;20037;-72
2022/08/16 05:52:27;;;;;;;40.97;21.52;;;16.20;99.90;;;;;;4918278;29;20037;-72
2022/08/16 05:54:52;;;;;;;39.95;19.83;;;16.40;99.90;;;;;;4919744;29;20451;-72
2022/08/16 05:57:18;;;;;;;18.75;13.65;;;16.70;99.90;;;;;;4933361;29;20515;-72
2022/08/16 05:59:46;;;;;;;17.83;13.35;;;16.90;99.90;;;;;;4919861;29;20036;-72
2022/08/16 06:02:12;;;;;;;15.30;11.65;;;17.00;99.90;;;;;;4919357;29;20053;-72
2022/08/16 06:04:37;;;;;;;15.60;12.52;;;17.10;99.90;;;;;;4918569;29;20579;-72
2022/08/16 06:07:05;;;;;;;17.35;13.10;;;17.10;99.90;;;;;;4919255;29;20083;-72
2022/08/16 06:09:32;;;;;;;21.70;13.80;;;17.00;99.90;;;;;;4918317;29;20080;-72
2022/08/16 06:11:59;;;;;;;22.70;14.95;;;17.10;99.90;;;;;;4918298;29;20109;-72
2022/08/16 06:14:25;;;;;;;16.58;12.90;;;17.10;99.90;;;;;;4918688;29;20059;-72
2022/08/16 06:16:52;;;;;;;11.80;10.27;;;17.00;99.90;;;;;;4919015;29;20084;-73
2022/08/16 06:19:17;;;;;;;19.35;13.52;;;16.90;99.90;;;;;;4919025;29;20032;-73
2022/08/16 06:21:44;;;;;;;13.93;11.27;;;16.90;99.90;;;;;;4918182;29;20040;-72
2022/08/16 06:24:09;;;;;;;16.75;13.48;;;16.90;99.90;;;;;;4918796;29;20048;-73
2022/08/16 06:26:35;;;;;;;22.38;15.35;;;16.90;99.90;;;;;;4918648;29;20044;-73
2022/08/16 06:29:00;;;;;;;17.20;14.05;;;17.00;99.90;;;;;;4918493;29;20040;-73
2022/08/16 06:31:26;;;;;;;15.70;12.73;;;17.00;99.90;;;;;;4918908;29;20032;-73
2022/08/16 06:33:51;;;;;;;19.83;15.07;;;17.10;99.90;;;;;;4919228;29;20127;-73
2022/08/16 06:36:17;;;;;;;37.50;17.90;;;17.10;99.90;;;;;;4919232;29;20032;-73
2022/08/16 06:38:43;;;;;;;16.48;12.30;;;17.20;99.90;;;;;;4932983;29;20494;-73
2022/08/16 06:41:09;;;;;;;18.17;13.95;;;17.30;99.90;;;;;;4918341;29;20036;-73
2022/08/16 06:43:36;;;;;;;21.25;15.13;;;17.40;99.90;;;;;;4918318;29;20051;-73
2022/08/16 06:46:06;;;;;;;19.25;14.85;;;17.40;99.90;;;;;;4917912;29;20578;-73
2022/08/16 06:48:33;;;;;;;17.23;13.57;;;17.50;99.90;;;;;;4933412;29;20055;-73
2022/08/16 06:51:04;;;;;;;14.70;11.93;;;17.50;99.90;;;;;;4932279;29;20043;-73
2022/08/16 06:53:32;;;;;;;17.80;14.52;;;17.50;99.90;;;;;;4919312;29;20558;-73
2022/08/16 06:55:59;;;;;;;20.63;15.73;;;17.60;99.90;;;;;;4918444;29;20040;-73
2022/08/16 06:58:25;;;;;;;17.33;13.10;;;17.70;99.90;;;;;;4933359;29;20077;-73
2022/08/16 07:00:50;;;;;;;16.40;13.52;;;17.80;99.90;;;;;;4918367;29;20112;-73
2022/08/16 07:03:17;;;;;;;15.43;11.93;;;17.90;99.90;;;;;;4917301;29;20418;-73
2022/08/16 07:05:42;;;;;;;19.27;14.00;;;18.10;99.90;;;;;;4918375;29;20028;-73
2022/08/16 07:08:10;;;;;;;14.68;11.07;;;18.10;99.90;;;;;;4918787;29;20040;-73
2022/08/16 07:10:36;;;;;;;15.23;11.88;;;18.10;99.90;;;;;;4918510;29;20036;-73
2022/08/16 07:13:02;;;;;;;15.75;12.63;;;18.20;99.90;;;;;;4918121;29;20045;-73
2022/08/16 07:15:27;;;;;;;18.20;10.88;;;18.50;99.90;;;;;;4916976;29;20464;-73
2022/08/16 07:17:53;;;;;;;17.52;12.15;;;18.60;99.90;;;;;;4918625;29;20452;-73
2022/08/16 07:20:21;;;;;;;11.18;9.95;;;18.50;99.90;;;;;;4918196;29;20075;-73
2022/08/16 07:22:48;;;;;;;11.77;10.63;;;18.50;99.90;;;;;;4917959;29;20041;-73
2022/08/16 07:25:14;;;;;;;14.35;12.30;;;18.50;99.90;;;;;;4917753;29;20041;-71
2022/08/16 07:27:40;;;;;;;10.82;8.57;;;18.60;99.90;;;;;;4918038;28;20482;-72
2022/08/16 07:30:11;;;;;;;14.35;10.90;;;19.10;99.90;;;;;;4917673;29;20522;-72
2022/08/16 07:32:37;;;;;;;9.73;7.90;;;19.20;99.90;;;;;;4917911;29;20064;-72
2022/08/16 07:35:04;;;;;;;9.82;8.55;;;19.50;99.90;;;;;;4917306;29;20036;-72
2022/08/16 07:37:29;;;;;;;13.23;9.02;;;19.80;99.90;;;;;;4916875;29;20032;-72
2022/08/16 07:39:55;;;;;;;14.15;10.00;;;20.10;99.90;;;;;;4917574;29;20040;-72
2022/08/16 07:42:21;;;;;;;10.48;8.43;;;20.10;99.90;;;;;;4917571;29;20048;-72
2022/08/16 07:44:47;;;;;;;8.25;6.78;;;20.40;99.90;;;;;;4917333;29;20475;-74
2022/08/16 07:47:13;;;;;;;7.60;6.35;;;20.60;99.90;;;;;;4917610;29;20119;-74
2022/08/16 07:49:38;;;;;;;8.55;6.38;;;20.80;99.90;;;;;;4917490;29;20159;-75
2022/08/16 07:52:04;;;;;;;6.80;6.00;;;21.00;99.90;;;;;;4916731;29;20056;-73
2022/08/16 07:54:30;;;;;;;7.80;6.75;;;21.10;99.90;;;;;;4916110;29;20037;-73
2022/08/16 07:56:55;;;;;;;8.80;7.25;;;21.40;99.90;;;;;;4917025;29;20047;-73
2022/08/16 07:59:23;;;;;;;8.98;5.80;;;21.70;99.90;;;;;;4947787;28;20041;-73
2022/08/16 08:01:51;;;;;;;8.50;6.32;;;22.10;99.90;;;;;;4916056;29;20037;-73
2022/08/16 08:04:17;;;;;;;9.23;7.15;;;22.30;99.90;;;;;;4919872;29;20093;-73
2022/08/16 08:06:43;;;;;;;6.65;5.38;;;22.20;99.90;;;;;;4934742;29;20048;-73
2022/08/16 08:09:09;;;;;;;7.72;6.75;;;22.20;99.90;;;;;;4920608;29;20052;-73
2022/08/16 08:11:34;;;;;;;6.85;6.00;;;22.20;99.90;;;;;;4920853;29;20036;-73
2022/08/16 08:14:00;;;;;;;7.10;6.20;;;22.30;99.90;;;;;;4919928;29;20053;-73
2022/08/16 08:16:27;;;;;;;7.03;5.70;;;22.40;99.90;;;;;;4920621;29;20029;-73
2022/08/16 08:18:55;;;;;;;9.18;6.90;;;22.60;99.90;;;;;;4920641;29;20495;-73
2022/08/16 08:21:23;;;;;;;8.20;5.72;;;22.70;99.90;;;;;;4920245;29;20072;-73
2022/08/16 08:23:50;;;;;;;6.53;5.88;;;22.50;99.90;;;;;;4934092;29;20049;-73
2022/08/16 08:26:16;;;;;;;8.00;5.93;;;22.40;99.90;;;;;;4920540;29;20466;-73
2022/08/16 08:28:42;;;;;;;7.38;6.68;;;22.20;99.90;;;;;;4934817;29;20044;-73
2022/08/16 08:31:08;;;;;;;7.28;6.43;;;22.50;99.90;;;;;;4919754;29;20507;-73
2022/08/16 08:33:34;;;;;;;8.80;6.60;;;22.50;99.90;;;;;;4920139;29;20526;-73
2022/08/16 08:36:03;;;;;;;7.50;6.72;;;22.80;99.90;;;;;;4918302;29;20418;-73
2022/08/16 08:38:30;;;;;;;8.70;6.88;;;22.70;99.90;;;;;;4920378;29;20547;-73
2022/08/16 08:40:55;;;;;;;9.40;6.45;;;22.30;99.90;;;;;;4934887;29;20064;-73
2022/08/16 08:43:21;;;;;;;9.00;6.05;;;22.10;99.90;;;;;;4920193;29;20128;-73
2022/08/16 08:45:47;;;;;;;7.18;6.53;;;22.00;99.90;;;;;;4919995;29;20039;-73
2022/08/16 08:48:14;;;;;;;8.57;7.78;;;21.70;99.90;;;;;;4920327;28;20119;-73
2022/08/16 08:50:41;;;;;;;7.38;6.68;;;21.70;99.90;;;;;;4921493;29;20040;-73
2022/08/16 08:53:07;;;;;;;8.45;7.05;;;21.80;99.90;;;;;;4920046;29;20036;-73
2022/08/16 08:55:33;;;;;;;9.88;7.00;;;22.00;99.90;;;;;;4919685;29;20037;-73
2022/08/16 08:57:59;;;;;;;7.82;7.00;;;22.30;99.90;;;;;;4920302;29;20040;-73
2022/08/16 09:00:27;;;;;;;9.02;6.18;;;22.60;99.90;;;;;;4919569;29;20041;-73
2022/08/16 09:02:53;;;;;;;8.82;6.38;;;23.00;99.90;;;;;;4919684;29;20515;-73
2022/08/16 09:05:21;;;;;;;8.77;5.68;;;23.30;99.90;;;;;;4919833;29;20045;-73
2022/08/16 09:07:46;;;;;;;7.32;6.53;;;23.70;99.90;;;;;;4920154;28;20132;-73
2022/08/16 09:10:13;;;;;;;8.25;6.82;;;24.00;99.90;;;;;;4934148;28;20127;-73
2022/08/16 09:12:39;;;;;;;7.25;6.40;;;24.00;99.90;;;;;;4919924;29;20041;-73
2022/08/16 09:15:07;;;;;;;9.40;7.28;;;24.20;99.90;;;;;;4918892;29;20040;-73
2022/08/16 09:17:33;;;;;;;7.38;6.63;;;24.30;99.90;;;;;;4919660;29;20463;-73
2022/08/16 09:19:58;;;;;;;7.68;6.07;;;24.30;99.90;;;;;;4919491;29;20047;-73
2022/08/16 09:22:26;;;;;;;7.75;6.13;;;24.40;99.90;;;;;;4918874;29;20111;-74
2022/08/16 09:24:52;;;;;;;11.48;6.60;;;24.00;99.90;;;;;;4931792;28;20048;-72
2022/08/16 09:27:18;;;;;;;7.95;6.75;;;23.70;99.90;;;;;;4920908;29;20037;-73
2022/08/16 09:29:43;;;;;;;9.68;7.47;;;23.20;99.90;;;;;;4919961;28;20127;-73
2022/08/16 09:32:09;;;;;;;8.52;7.13;;;22.80;99.90;;;;;;4917368;29;20045;-73
2022/08/16 09:34:35;;;;;;;7.15;6.22;;;22.50;99.90;;;;;;4920659;29;20040;-73
2022/08/16 09:37:01;;;;;;;7.90;6.95;;;22.20;99.90;;;;;;4920695;29;20040;-73
2022/08/16 09:39:27;;;;;;;9.02;8.02;;;22.10;99.90;;;;;;4923142;29;20036;-73
2022/08/16 09:41:55;;;;;;;8.23;7.53;;;22.10;99.90;;;;;;4920975;28;20509;-72
2022/08/16 09:44:25;;;;;;;8.30;7.13;;;21.90;99.90;;;;;;4933139;29;20049;-72
2022/08/16 09:46:52;;;;;;;9.68;8.23;;;21.80;99.90;;;;;;4900312;29;20033;-72
2022/08/16 09:49:18;;;;;;;9.60;7.15;;;21.70;99.90;;;;;;4900621;29;20460;-72
2022/08/16 09:51:44;;;;;;;9.40;7.40;;;22.00;99.90;;;;;;4900250;29;20124;-72
2022/08/16 09:54:09;;;;;;;7.75;6.63;;;22.70;99.90;;;;;;4906056;29;20128;-72
2022/08/16 09:56:37;;;;;;;8.30;6.15;;;23.50;99.90;;;;;;4918624;29;20052;-72
2022/08/16 09:59:05;;;;;;;8.05;6.30;;;24.00;99.90;;;;;;4918372;29;20041;-73
2022/08/16 10:01:32;;;;;;;7.57;6.28;;;24.50;99.90;;;;;;4917814;29;20041;-72
2022/08/16 10:03:58;;;;;;;7.25;6.32;;;24.80;99.90;;;;;;4916770;29;20135;-74
2022/08/16 10:06:26;;;;;;;8.60;6.97;;;24.90;99.90;;;;;;4932349;29;20512;-73
2022/08/16 10:08:52;;;;;;;6.93;6.22;;;24.80;99.90;;;;;;4920728;28;20044;-73
2022/08/16 10:14:03;;;;;;;9.38;6.72;;;24.20;99.90;;;;;;4926573;29;20048;-71
2022/08/16 10:16:29;;;;;;;9.15;6.88;;;24.10;99.90;;;;;;4931591;29;20033;-75
2022/08/16 10:18:55;;;;;;;9.35;6.40;;;24.50;99.90;;;;;;4922090;28;20095;-72
2022/08/16 10:21:21;;;;;;;6.50;5.80;;;24.50;99.90;;;;;;4916575;28;20559;-73
2022/08/16 10:23:48;;;;;;;7.47;6.55;;;24.90;99.90;;;;;;4926452;29;20036;-73
2022/08/16 10:26:14;;;;;;;7.53;5.85;;;25.20;99.90;;;;;;4922721;28;20041;-74
2022/08/16 10:28:40;;;;;;;8.48;5.97;;;25.70;99.90;;;;;;4929721;29;20048;-71
2022/08/16 10:31:07;;;;;;;6.47;5.40;;;26.00;99.90;;;;;;4923628;28;20036;-74
2022/08/16 10:33:33;;;;;;;6.10;5.50;;;26.20;99.90;;;;;;4922738;29;20041;-74
2022/08/16 10:36:01;;;;;;;7.72;5.93;;;26.20;99.90;;;;;;4922410;28;20032;-71
2022/08/16 10:38:27;;;;;;;9.63;5.28;;;25.70;99.90;;;;;;4920124;29;20043;-71
2022/08/16 10:40:53;;;;;;;6.65;5.30;;;25.10;99.90;;;;;;4932921;29;20044;-71
2022/08/16 10:43:19;;;;;;;5.68;5.03;;;24.70;99.90;;;;;;4919569;29;20041;-70
2022/08/16 10:45:47;;;;;;;9.68;5.43;;;24.60;99.90;;;;;;4918090;29;20112;-71
2022/08/16 10:48:13;;;;;;;7.32;5.20;;;24.40;99.90;;;;;;4918143;29;20111;-73
2022/08/16 10:50:38;;;;;;;7.65;5.20;;;24.20;99.90;;;;;;4920771;29;20037;-72
2022/08/16 10:53:05;;;;;;;9.15;5.60;;;24.20;99.90;;;;;;4920524;29;20112;-73
2022/08/16 10:55:39;;;;;;;5.55;4.78;;;24.50;99.90;;;;;;4919690;29;20044;-71
2022/08/16 10:58:06;;;;;;;7.50;5.20;;;25.00;99.90;;;;;;4918671;29;20092;-72
2022/08/16 11:00:34;;;;;;;6.97;5.45;;;25.10;99.90;;;;;;4918080;29;20049;-71
2022/08/16 11:03:02;;;;;;;7.00;5.20;;;25.00;99.90;;;;;;4918244;29;20064;-72
2022/08/16 11:05:33;;;;;;;5.90;5.03;;;24.80;99.60;;;;;;4917822;29;20039;-72
2022/08/16 11:08:00;;;;;;;5.10;4.60;;;24.90;99.90;;;;;;4918371;29;20558;-73
2022/08/16 11:10:32;;;;;;;6.32;5.13;;;25.80;99.40;;;;;;4917824;29;20176;-73
2022/08/16 11:12:58;;;;;;;7.35;5.07;;;26.10;95.70;;;;;;4917759;29;20096;-72
2022/08/16 11:15:24;;;;;;;9.60;5.25;;;25.80;95.00;;;;;;4917377;29;20040;-73
2022/08/16 11:17:51;;;;;;;6.78;5.43;;;25.50;96.60;;;;;;4917898;29;20076;-73
2022/08/16 11:20:17;;;;;;;6.10;5.25;;;25.30;99.20;;;;;;4918786;29;20032;-75
2022/08/16 11:22:45;;;;;;;6.10;5.20;;;25.60;97.00;;;;;;4918296;29;20119;-73
2022/08/16 11:25:13;;;;;;;6.38;5.15;;;26.10;95.90;;;;;;4917663;29;20036;-73
2022/08/16 11:27:40;;;;;;;5.57;4.65;;;26.10;94.30;;;;;;4917531;29;20049;-74
2022/08/16 11:30:08;;;;;;;6.00;4.72;;;26.20;93.20;;;;;;4917884;29;20618;-73
2022/08/16 11:32:34;;;;;;;6.10;4.57;;;26.70;92.20;;;;;;4917415;29;20036;-74
2022/08/16 11:35:09;;;;;;;5.95;4.80;;;27.60;91.60;;;;;;4917669;29;20037;-72
2022/08/16 11:37:35;;;;;;;9.13;4.70;;;28.50;90.40;;;;;;4917930;29;20068;-74
2022/08/16 11:40:04;;;;;;;8.00;4.43;;;28.50;85.50;;;;;;4917865;29;20499;-74
2022/08/16 11:42:29;;;;;;;5.63;4.75;;;27.90;86.80;;;;;;4917049;29;20184;-73
2022/08/16 11:44:55;;;;;;;6.55;4.85;;;27.50;87.60;;;;;;4917266;29;20048;-74
2022/08/16 11:47:21;;;;;;;8.88;4.82;;;27.10;87.90;;;;;;4917923;29;20036;-74
2022/08/16 11:49:46;;;;;;;4.95;4.38;;;26.90;87.40;;;;;;4917737;29;20032;-73
2022/08/16 11:52:12;;;;;;;4.85;4.40;;;27.20;88.20;;;;;;4916243;29;20037;-72
2022/08/16 11:54:39;;;;;;;5.20;4.70;;;27.70;85.80;;;;;;4931912;29;20596;-80
2022/08/16 11:57:05;;;;;;;8.10;4.28;;;28.10;89.30;;;;;;4932285;29;20044;-72
2022/08/16 11:59:31;;;;;;;7.45;4.63;;;28.30;84.60;;;;;;4917680;29;20045;-72
2022/08/16 12:01:57;;;;;;;5.18;4.68;;;28.60;84.70;;;;;;4931674;29;20131;-72
2022/08/16 12:04:23;;;;;;;6.20;4.65;;;28.70;80.60;;;;;;4917172;29;20044;-74
2022/08/16 12:06:49;;;;;;;6.95;4.50;;;28.50;83.10;;;;;;4917297;29;20039;-73
2022/08/16 12:09:14;;;;;;;5.60;4.57;;;28.40;79.30;;;;;;4917463;29;20050;-73
2022/08/16 12:11:40;;;;;;;5.65;4.70;;;28.60;80.20;;;;;;4917405;29;20047;-73
2022/08/16 12:14:06;;;;;;;7.10;4.35;;;29.20;78.90;;;;;;4916644;29;20044;-74
2022/08/16 12:16:34;;;;;;;7.55;4.43;;;29.60;76.40;;;;;;4911005;29;20033;-74
2022/08/16 12:19:04;;;;;;;5.20;3.90;;;30.00;74.90;;;;;;4916092;29;20048;-75
2022/08/16 12:21:30;;;;;;;5.32;4.07;;;30.20;72.40;;;;;;4904201;29;20037;-75
2022/08/16 12:23:56;;;;;;;4.88;3.85;;;30.30;72.50;;;;;;4916475;29;20049;-73
2022/08/16 12:26:22;;;;;;;5.22;3.53;;;30.60;73.70;;;;;;4917314;29;20554;-72
2022/08/16 12:28:52;;;;;;;6.00;4.30;;;31.10;69.90;;;;;;4917038;29;20046;-72
2022/08/16 12:31:19;;;;;;;13.50;4.72;;;31.40;73.90;;;;;;4916506;29;20526;-72
2022/08/16 12:33:45;;;;;;;8.27;4.63;;;31.60;66.70;;;;;;4916248;29;20526;-72
2022/08/16 12:36:11;;;;;;;5.25;4.13;;;31.20;70.00;;;;;;4915634;29;20096;-72
2022/08/16 12:38:36;;;;;;;4.25;3.85;;;31.10;72.50;;;;;;4916738;29;20049;-72
2022/08/16 12:41:03;;;;;;;4.57;3.75;;;31.50;68.90;;;;;;4916908;29;20084;-73
2022/08/16 12:43:28;;;;;;;4.82;3.75;;;31.70;67.00;;;;;;4916701;29;20041;-72
2022/08/16 12:45:55;;;;;;;4.20;3.55;;;32.00;64.70;;;;;;4916587;29;20036;-72
2022/08/16 12:51:13;;;;;;;4.80;3.53;;;31.90;68.80;;;;;;4924600;29;20032;-73
2022/08/16 12:53:38;;;;;;;5.53;3.92;;;31.90;65.10;;;;;;4921251;29;20040;-77
2022/08/16 12:56:05;;;;;;;7.05;3.45;;;32.00;64.40;;;;;;4921816;29;20028;-73
2022/08/16 12:58:31;;;;;;;6.47;3.65;;;32.20;63.00;;;;;;4923121;29;20119;-74
2022/08/16 13:00:59;;;;;;;4.40;4.00;;;32.30;63.20;;;;;;4919572;29;20798;-73
2022/08/16 13:03:27;;;;;;;6.68;3.85;;;32.00;63.30;;;;;;4924877;28;20566;-73
2022/08/16 13:05:53;;;;;;;5.55;4.10;;;32.20;64.50;;;;;;4919463;29;20072;-73
2022/08/16 13:08:19;;;;;;;5.10;3.83;;;32.10;63.50;;;;;;4921582;29;20044;-73
2022/08/16 13:10:47;;;;;;;6.00;3.80;;;31.80;63.30;;;;;;4936294;28;20495;-74
2022/08/16 13:13:25;;;;;;;4.15;3.75;;;32.10;62.40;;;;;;4919525;29;20051;-74
2022/08/16 13:15:52;;;;;;;5.03;3.85;;;32.20;63.80;;;;;;4904296;29;20028;-74
2022/08/16 13:18:19;;;;;;;5.03;3.92;;;32.70;62.30;;;;;;4919741;28;20045;-74
2022/08/16 13:20:44;;;;;;;6.13;3.80;;;32.80;61.90;;;;;;4919189;29;20041;-74
2022/08/16 13:23:11;;;;;;;7.60;4.35;;;32.90;63.10;;;;;;4927157;29;20043;-74
2022/08/16 13:25:39;;;;;;;5.43;3.75;;;33.20;62.20;;;;;;4918726;29;20039;-74
2022/08/16 13:28:05;;;;;;;5.72;3.72;;;33.30;59.40;;;;;;4918838;29;20120;-73
2022/08/16 13:30:34;;;;;;;6.38;3.95;;;33.50;62.80;;;;;;4927300;29;20115;-75
2022/08/16 13:33:00;;;;;;;5.25;4.28;;;33.50;60.10;;;;;;4938389;28;20036;-75
2022/08/16 13:35:25;;;;;;;5.03;3.58;;;33.30;60.00;;;;;;4929924;28;20372;-73
2022/08/16 13:37:51;;;;;;;6.30;3.60;;;33.60;60.90;;;;;;4925383;29;20041;-74
2022/08/16 13:40:18;;;;;;;4.97;3.90;;;33.90;58.10;;;;;;4919268;29;20490;-73
2022/08/16 13:42:44;;;;;;;5.00;3.47;;;34.30;59.50;;;;;;4919420;29;20040;-76
2022/08/16 13:45:12;;;;;;;4.95;3.47;;;34.90;59.50;;;;;;4919254;29;20033;-73
2022/08/16 13:47:38;;;;;;;3.92;3.22;;;35.20;57.10;;;;;;4922489;29;20516;-73
2022/08/16 13:50:05;;;;;;;4.45;3.67;;;35.40;54.00;;;;;;4934737;29;20088;-73
2022/08/16 13:52:33;;;;;;;5.68;3.42;;;35.90;52.40;;;;;;4920153;29;20068;-75
2022/08/16 13:54:59;;;;;;;4.60;3.05;;;36.10;51.50;;;;;;4920046;29;20036;-74
2022/08/16 13:57:24;;;;;;;4.88;3.28;;;35.90;50.60;;;;;;4918439;29;20514;-73
2022/08/16 13:59:50;;;;;;;3.88;3.30;;;35.90;50.40;;;;;;4918035;28;20032;-74
2022/08/16 14:02:16;;;;;;;3.58;3.00;;;36.20;50.20;;;;;;4917413;29;20069;-74
2022/08/16 14:04:41;;;;;;;4.35;3.13;;;36.50;53.10;;;;;;4918232;29;20040;-74
2022/08/16 14:07:10;;;;;;;4.20;2.88;;;36.20;53.20;;;;;;4918524;29;20043;-74
2022/08/16 14:09:37;;;;;;;5.63;2.97;;;37.10;50.00;;;;;;4918399;29;20507;-74
2022/08/16 14:12:16;;;;;;;3.97;2.72;;;37.20;48.60;;;;;;4919011;29;20537;-74
2022/08/16 14:14:42;;;;;;;3.40;2.60;;;37.20;48.00;;;;;;4917675;28;20538;-74
2022/08/16 14:17:07;;;;;;;5.13;3.10;;;38.30;47.50;;;;;;4922394;29;20096;-74
2022/08/16 14:19:33;;;;;;;3.22;2.63;;;37.90;46.90;;;;;;4929510;28;20040;-74
2022/08/16 14:21:59;;;;;;;4.18;2.88;;;38.60;46.30;;;;;;4918502;29;20095;-74
2022/08/16 14:24:25;;;;;;;3.17;2.88;;;38.60;48.80;;;;;;4917937;29;20045;-74
2022/08/16 14:26:51;;;;;;;3.90;2.78;;;38.20;46.20;;;;;;4918244;29;20048;-74
2022/08/16 14:29:16;;;;;;;3.08;2.78;;;38.70;47.10;;;;;;4918687;29;20096;-74
2022/08/16 14:31:42;;;;;;;3.15;2.72;;;38.90;47.20;;;;;;4932470;29;20044;-76
2022/08/16 14:34:08;;;;;;;3.63;3.13;;;39.40;45.30;;;;;;4918687;29;20040;-74
2022/08/16 14:36:33;;;;;;;4.38;2.75;;;39.70;44.80;;;;;;4918798;29;20039;-75
2022/08/16 14:38:59;;;;;;;3.40;2.60;;;40.40;42.30;;;;;;4918824;29;20487;-74
2022/08/16 14:41:25;;;;;;;4.20;2.60;;;41.20;41.50;;;;;;4918156;29;20096;-74
2022/08/16 14:43:51;;;;;;;2.92;2.60;;;41.20;42.00;;;;;;4918296;29;20079;-74
2022/08/16 14:46:17;;;;;;;3.50;2.50;;;41.80;41.60;;;;;;4918148;29;20116;-75
2022/08/16 14:48:43;;;;;;;3.22;2.92;;;41.70;41.70;;;;;;4918690;29;20498;-80
2022/08/16 14:51:09;;;;;;;3.78;2.80;;;41.70;41.40;;;;;;4918658;29;20044;-80
2022/08/16 14:53:34;;;;;;;3.33;2.80;;;41.10;44.50;;;;;;4918473;29;20503;-75
2022/08/16 14:56:00;;;;;;;3.42;3.10;;;41.30;40.80;;;;;;4932283;29;20047;-75
2022/08/16 14:58:26;;;;;;;3.00;2.80;;;41.10;42.10;;;;;;4918449;29;20036;-84
2022/08/16 15:00:51;;;;;;;3.40;3.10;;;41.50;41.30;;;;;;4918213;29;20036;-76
2022/08/16 15:03:20;;;;;;;3.58;3.10;;;42.00;40.20;;;;;;4918152;29;20479;-74
2022/08/16 15:05:46;;;;;;;5.07;3.30;;;41.70;41.20;;;;;;4917885;29;20570;-74
2022/08/16 15:08:11;;;;;;;4.40;3.22;;;42.00;40.00;;;;;;4918345;29;20100;-74
2022/08/16 15:10:37;;;;;;;4.00;3.33;;;41.80;40.00;;;;;;4918174;29;20511;-74
2022/08/16 15:13:06;;;;;;;2.95;2.60;;;40.80;40.90;;;;;;4917955;29;20513;-77
2022/08/16 15:15:32;;;;;;;3.78;3.10;;;41.00;43.60;;;;;;4932615;29;20045;-74
2022/08/16 15:17:59;;;;;;;4.63;3.10;;;40.70;42.70;;;;;;4918157;29;20053;-74
2022/08/16 15:20:28;;;;;;;4.07;3.53;;;40.90;40.70;;;;;;4917824;29;20518;-74
2022/08/16 15:22:54;;;;;;;3.45;3.15;;;40.50;40.70;;;;;;4917794;29;20116;-74
2022/08/16 15:25:24;;;;;;;4.15;3.10;;;40.30;40.70;;;;;;4917887;28;20040;-74
2022/08/16 15:27:50;;;;;;;3.90;3.08;;;38.50;44.70;;;;;;4917569;29;20035;-74
2022/08/16 15:30:20;;;;;;;4.05;2.78;;;37.20;46.60;;;;;;4917803;29;20406;-77
2022/08/16 15:32:46;;;;;;;3.40;2.70;;;38.40;46.10;;;;;;4919302;29;20047;-74
2022/08/16 15:35:13;;;;;;;3.05;2.75;;;39.10;42.50;;;;;;4923148;29;20040;-73
2022/08/16 15:37:38;;;;;;;2.90;2.70;;;40.20;43.40;;;;;;4917666;28;20058;-74
2022/08/16 15:40:07;;;;;;;4.30;3.20;;;41.10;40.10;;;;;;4920108;29;20084;-72
2022/08/16 15:42:33;;;;;;;3.10;2.50;;;41.30;41.20;;;;;;4917687;29;20048;-74
2022/08/16 15:45:01;;;;;;;4.40;3.40;;;42.00;38.80;;;;;;4917134;29;20036;-73
2022/08/16 15:47:27;;;;;;;4.47;2.78;;;41.90;39.90;;;;;;4911859;29;20048;-76
2022/08/16 15:49:54;;;;;;;4.38;2.67;;;41.20;40.80;;;;;;4917478;29;20405;-72
2022/08/16 15:52:25;;;;;;;4.05;3.40;;;41.70;40.20;;;;;;4919460;29;20040;-73
2022/08/16 15:54:50;;;;;;;4.07;2.95;;;42.40;39.40;;;;;;4916810;29;20095;-74
2022/08/16 15:57:16;;;;;;;3.58;3.08;;;42.00;39.10;;;;;;4922229;29;20487;-72
2022/08/16 15:59:43;;;;;;;2.90;2.70;;;41.90;38.50;;;;;;4917227;29;20029;-74
2022/08/16 16:02:09;;;;;;;3.58;2.97;;;41.10;40.80;;;;;;4917029;29;20113;-73
2022/08/16 16:04:35;;;;;;;3.20;2.97;;;40.80;40.20;;;;;;4916986;29;20124;-74
2022/08/16 16:07:02;;;;;;;8.13;7.32;;;41.90;40.20;;;;;;4916954;29;20032;-74
2022/08/16 16:09:28;;;;;;;15.93;14.52;;;42.70;38.50;;;;;;4916942;29;20036;-73
2022/08/16 16:11:53;;;;;;;19.75;16.15;;;43.50;36.60;;;;;;4917150;29;20503;-75
2022/08/16 16:14:20;;;;;;;6.65;5.82;;;42.60;38.90;;;;;;4917517;29;20138;-76
2022/08/16 16:16:49;;;;;;;8.90;8.07;;;41.50;38.90;;;;;;4947665;28;20032;-76
2022/08/16 16:19:19;;;;;;;22.75;20.60;;;41.90;39.80;;;;;;4917468;29;20040;-75
2022/08/16 16:21:46;;;;;;;14.00;12.63;;;42.20;39.90;;;;;;4914577;29;20029;-75
2022/08/16 16:24:12;;;;;;;6.07;4.95;;;41.80;38.50;;;;;;4917397;29;20053;-75
2022/08/16 16:26:37;;;;;;;5.50;4.25;;;41.40;39.00;;;;;;4921242;29;20670;-75
2022/08/16 16:29:03;;;;;;;8.00;2.85;;;41.00;39.90;;;;;;4921413;29;20542;-75
2022/08/16 16:31:30;;;;;;;3.40;3.10;;;41.70;38.90;;;;;;4951364;28;20127;-75
2022/08/16 16:33:59;;;;;;;27.55;21.65;;;41.20;40.30;;;;;;4920892;29;20064;-75
2022/08/16 16:36:28;;;;;;;4.72;3.22;;;41.20;39.90;;;;;;4920068;29;20534;-75
2022/08/16 16:38:54;;;;;;;4.15;3.20;;;41.20;40.10;;;;;;4920889;29;20502;-75
2022/08/16 16:41:23;;;;;;;6.43;3.15;;;41.40;40.90;;;;;;4920155;29;20040;-76